Time;durP1;ratioP1;P1;durP2;ratioP2;P2;SDS_P1;SDS_P2;PMS_P1;PMS_P2;Temp;Humidity;BMP_temperature;BMP_pressure;BME280_temperature;BME280_humidity;BME280_pressure;Samples;Min_cycle;Max_cycle;Signal;HPM_P1;HPM_P2
2021/09/29 00:02:07;;;;;;;35.22;14.43;;;10.00;99.90;;;;;;4987308;28;20171;-68
2021/09/29 00:04:34;;;;;;;25.15;14.93;;;10.00;99.90;;;;;;4970129;28;20338;-68
2021/09/29 00:07:01;;;;;;;21.65;13.63;;;10.00;99.90;;;;;;4965395;28;20308;-68
2021/09/29 00:09:28;;;;;;;28.98;14.00;;;10.00;99.90;;;;;;4982229;28;20300;-68
2021/09/29 00:11:55;;;;;;;27.33;13.57;;;9.90;99.90;;;;;;4986162;28;20050;-68
2021/09/29 00:14:22;;;;;;;25.73;13.27;;;10.00;99.90;;;;;;4969932;28;20049;-68
2021/09/29 00:16:48;;;;;;;27.65;15.25;;;10.10;99.90;;;;;;5001941;28;20042;-68
2021/09/29 00:19:15;;;;;;;24.00;13.82;;;10.10;99.90;;;;;;5002093;28;20072;-68
2021/09/29 00:21:42;;;;;;;26.48;15.27;;;10.00;99.90;;;;;;5002236;28;20053;-67
2021/09/29 00:24:09;;;;;;;24.55;14.20;;;10.10;99.90;;;;;;4966769;28;20050;-68
2021/09/29 00:26:36;;;;;;;29.15;15.13;;;10.20;99.90;;;;;;5001592;28;20042;-68
2021/09/29 00:29:03;;;;;;;31.00;14.85;;;10.00;99.90;;;;;;5001408;28;20077;-68
2021/09/29 00:34:47;;;;;;;29.17;15.63;;;10.10;99.90;;;;;;4984917;28;20538;-68
2021/09/29 00:36:54;;;;;;;24.40;14.77;;;10.20;99.90;;;;;;4976453;28;20054;-68
2021/09/29 00:39:21;;;;;;;22.80;15.02;;;10.10;99.90;;;;;;5001579;28;20389;-68
2021/09/29 00:41:48;;;;;;;25.88;14.88;;;10.20;99.90;;;;;;5032585;23;20044;-76
2021/09/29 00:44:15;;;;;;;26.30;15.45;;;10.10;99.90;;;;;;5018764;28;20048;-76
2021/09/29 00:46:42;;;;;;;22.42;13.88;;;10.10;99.90;;;;;;5018533;28;20518;-76
2021/09/29 00:49:11;;;;;;;22.67;13.05;;;10.00;99.90;;;;;;5023203;28;20499;-76
2021/09/29 00:51:37;;;;;;;23.92;13.65;;;10.00;99.90;;;;;;5008364;28;20054;-76
2021/09/29 00:54:06;;;;;;;26.02;14.52;;;10.00;99.90;;;;;;5010504;28;20336;-76
2021/09/29 00:56:33;;;;;;;30.13;15.13;;;10.20;99.90;;;;;;5030183;28;20078;-76
2021/09/29 00:59:00;;;;;;;22.90;14.40;;;10.10;99.90;;;;;;5007461;28;20504;-76
2021/09/29 01:01:27;;;;;;;21.50;13.63;;;9.90;99.90;;;;;;5015763;28;20568;-76
2021/09/29 01:03:55;;;;;;;27.05;14.60;;;9.90;99.90;;;;;;5020901;28;20448;-76
2021/09/29 01:06:43;;;;;;;26.75;16.25;;;9.90;99.90;;;;;;5013238;28;20049;-76
2021/09/29 01:09:31;;;;;;;27.40;13.95;;;10.00;99.90;;;;;;5022749;28;20061;-76
2021/09/29 01:12:14;;;;;;;25.55;14.68;;;10.00;99.90;;;;;;5023388;28;20111;-76
2021/09/29 01:14:51;;;;;;;31.60;15.90;;;10.00;99.90;;;;;;5005039;28;20050;-76
2021/09/29 01:17:19;;;;;;;28.13;14.70;;;10.00;99.90;;;;;;5004206;28;20046;-76
2021/09/29 01:20:01;;;;;;;30.95;17.02;;;10.00;99.90;;;;;;5004933;28;20276;-76
2021/09/29 01:22:49;;;;;;;28.65;15.95;;;10.00;99.90;;;;;;4988297;28;20574;-76
2021/09/29 01:25:53;;;;;;;32.80;16.38;;;10.00;99.90;;;;;;5023302;28;20065;-76
2021/09/29 01:28:34;;;;;;;26.85;17.08;;;9.90;99.90;;;;;;5022850;28;20049;-76
2021/09/29 01:31:02;;;;;;;24.95;15.63;;;9.90;99.90;;;;;;5008419;28;20042;-76
2021/09/29 01:33:31;;;;;;;32.13;17.70;;;9.90;99.90;;;;;;5013080;28;20034;-76
2021/09/29 01:35:58;;;;;;;28.65;16.38;;;9.80;99.90;;;;;;5010607;28;20066;-76
2021/09/29 01:38:25;;;;;;;29.00;16.88;;;9.70;99.90;;;;;;5003424;28;20520;-76
2021/09/29 01:40:52;;;;;;;31.20;17.35;;;9.80;99.90;;;;;;4985670;28;20115;-76
2021/09/29 01:43:19;;;;;;;28.23;17.77;;;9.60;99.90;;;;;;5016695;28;20099;-76
2021/09/29 01:45:47;;;;;;;31.90;17.50;;;9.60;99.90;;;;;;5022508;28;20104;-76
2021/09/29 01:48:18;;;;;;;35.95;17.45;;;9.60;99.90;;;;;;5012584;28;20402;-76
2021/09/29 01:50:46;;;;;;;28.77;17.42;;;9.60;99.90;;;;;;5002440;28;20050;-76
2021/09/29 01:53:17;;;;;;;31.02;17.63;;;9.50;99.90;;;;;;4985731;28;20061;-76
2021/09/29 01:55:44;;;;;;;29.45;17.25;;;9.40;99.90;;;;;;5009465;28;20487;-76
2021/09/29 01:58:12;;;;;;;33.75;19.20;;;9.40;99.90;;;;;;5043648;28;20482;-76
2021/09/29 02:00:40;;;;;;;34.58;18.20;;;9.40;99.90;;;;;;5016511;28;20053;-76
2021/09/29 02:03:07;;;;;;;36.90;18.95;;;9.40;99.90;;;;;;5010771;28;20428;-76
2021/09/29 02:05:36;;;;;;;26.48;16.20;;;9.30;99.90;;;;;;5015081;28;20046;-76
2021/09/29 02:08:07;;;;;;;34.78;19.50;;;9.20;99.90;;;;;;5003865;28;20405;-76
2021/09/29 02:10:34;;;;;;;40.90;20.45;;;9.30;99.90;;;;;;5013853;28;20053;-76
2021/09/29 02:13:02;;;;;;;35.90;19.88;;;9.30;99.90;;;;;;5008440;28;20045;-76
2021/09/29 02:15:29;;;;;;;38.78;19.52;;;9.10;99.90;;;;;;5008569;28;20045;-76
2021/09/29 02:17:56;;;;;;;40.33;19.73;;;9.10;99.90;;;;;;5024509;28;20134;-76
2021/09/29 02:20:22;;;;;;;36.88;22.48;;;9.10;99.90;;;;;;4997462;28;20057;-76
2021/09/29 02:22:49;;;;;;;44.03;23.35;;;9.10;99.90;;;;;;5023896;28;20073;-76
2021/09/29 02:25:16;;;;;;;48.70;23.08;;;9.10;99.90;;;;;;5027102;28;20566;-76
2021/09/29 02:27:43;;;;;;;49.40;24.05;;;9.10;99.90;;;;;;5025988;28;20042;-76
2021/09/29 02:30:11;;;;;;;41.92;22.42;;;9.20;99.90;;;;;;5017324;28;20033;-76
2021/09/29 02:32:38;;;;;;;42.78;23.17;;;9.20;99.90;;;;;;5020925;28;20099;-76
2021/09/29 02:35:08;;;;;;;49.15;23.13;;;9.20;99.90;;;;;;5017226;28;20397;-76
2021/09/29 02:37:35;;;;;;;40.55;22.30;;;9.20;99.90;;;;;;5006311;28;20112;-76
2021/09/29 02:40:04;;;;;;;46.25;22.95;;;9.30;99.90;;;;;;5005783;28;20516;-76
2021/09/29 02:42:30;;;;;;;44.53;23.45;;;9.30;99.90;;;;;;5025625;28;20511;-76
2021/09/29 02:44:57;;;;;;;46.28;24.58;;;9.30;99.90;;;;;;5026068;28;20138;-76
2021/09/29 02:47:24;;;;;;;53.90;25.00;;;9.30;99.90;;;;;;5012430;28;20057;-76
2021/09/29 02:49:51;;;;;;;55.22;26.35;;;9.40;99.90;;;;;;5006090;28;20058;-76
2021/09/29 02:52:17;;;;;;;50.88;24.17;;;9.40;99.90;;;;;;5021531;28;20045;-75
2021/09/29 02:54:44;;;;;;;58.50;27.30;;;9.40;99.90;;;;;;5009884;28;20259;-76
2021/09/29 02:57:11;;;;;;;57.47;28.02;;;9.50;99.90;;;;;;5044633;28;20058;-76
2021/09/29 02:59:37;;;;;;;57.80;26.83;;;9.40;99.90;;;;;;5030842;28;20050;-76
2021/09/29 03:02:05;;;;;;;58.60;26.52;;;9.30;99.90;;;;;;5012127;28;20057;-76
2021/09/29 03:04:32;;;;;;;63.35;27.88;;;9.20;99.90;;;;;;5024956;28;20687;-75
2021/09/29 03:06:58;;;;;;;58.22;27.77;;;9.20;99.90;;;;;;5021546;28;20129;-76
2021/09/29 03:09:25;;;;;;;49.97;25.73;;;9.30;99.90;;;;;;5005164;28;20053;-76
2021/09/29 03:11:52;;;;;;;54.28;26.10;;;9.20;99.90;;;;;;5008938;28;20202;-76
2021/09/29 03:14:19;;;;;;;55.30;26.35;;;9.10;99.90;;;;;;5024009;28;20491;-76
2021/09/29 03:17:00;;;;;;;55.83;25.73;;;9.10;99.90;;;;;;5022093;28;20045;-76
2021/09/29 03:19:27;;;;;;;54.42;25.27;;;9.10;99.90;;;;;;5025760;28;20041;-76
2021/09/29 03:21:54;;;;;;;53.75;25.65;;;9.00;99.90;;;;;;5021987;28;20045;-76
2021/09/29 03:24:21;;;;;;;48.80;24.10;;;9.10;99.90;;;;;;5024582;28;20049;-77
2021/09/29 03:26:49;;;;;;;47.40;25.48;;;9.20;99.90;;;;;;5006754;28;20073;-76
2021/09/29 03:29:16;;;;;;;51.78;25.23;;;9.10;99.90;;;;;;5002883;28;20099;-76
2021/09/29 03:31:43;;;;;;;50.47;26.45;;;9.20;99.90;;;;;;5012956;28;20050;-76
2021/09/29 03:34:10;;;;;;;56.63;27.60;;;9.20;99.90;;;;;;5001683;28;20529;-76
2021/09/29 03:36:37;;;;;;;54.08;27.15;;;9.20;99.90;;;;;;4999254;28;20326;-76
2021/09/29 03:39:05;;;;;;;58.20;28.75;;;9.10;99.90;;;;;;5023735;28;20053;-76
2021/09/29 03:41:32;;;;;;;59.38;29.85;;;9.10;99.90;;;;;;5023214;28;20045;-76
2021/09/29 03:43:58;;;;;;;67.13;29.63;;;9.10;99.90;;;;;;5022973;28;20130;-77
2021/09/29 03:46:25;;;;;;;59.20;29.50;;;9.00;99.90;;;;;;5018037;28;20049;-76
2021/09/29 03:48:52;;;;;;;62.40;29.00;;;9.00;99.90;;;;;;4987239;28;20148;-76
2021/09/29 03:51:19;;;;;;;58.10;28.70;;;8.90;99.90;;;;;;5003260;28;20054;-76
2021/09/29 03:53:45;;;;;;;70.10;32.45;;;8.80;99.90;;;;;;5016898;28;20079;-76
2021/09/29 03:56:12;;;;;;;66.88;31.20;;;9.00;99.90;;;;;;5031163;28;20240;-76
2021/09/29 03:58:39;;;;;;;64.97;31.80;;;8.90;99.90;;;;;;5016430;28;20461;-76
2021/09/29 04:01:06;;;;;;;74.90;31.80;;;9.10;99.90;;;;;;4992094;28;20708;-76
2021/09/29 04:03:33;;;;;;;76.38;34.80;;;9.20;99.90;;;;;;5021149;28;20621;-76
2021/09/29 04:06:00;;;;;;;71.30;33.75;;;9.20;99.90;;;;;;5015467;28;20170;-76
2021/09/29 04:08:27;;;;;;;63.92;30.70;;;9.30;99.90;;;;;;5016026;28;20411;-75
2021/09/29 04:10:56;;;;;;;61.28;30.55;;;9.30;99.90;;;;;;5028883;28;20049;-76
2021/09/29 04:13:23;;;;;;;67.00;32.08;;;9.40;99.90;;;;;;5026477;28;20460;-76
2021/09/29 04:15:50;;;;;;;66.68;31.27;;;9.40;99.90;;;;;;5034075;28;20052;-75
2021/09/29 04:18:17;;;;;;;52.10;28.42;;;9.50;99.90;;;;;;5042712;28;20053;-76
2021/09/29 04:20:44;;;;;;;60.92;29.52;;;9.60;99.90;;;;;;5042675;28;20102;-76
2021/09/29 04:23:11;;;;;;;49.92;26.98;;;9.60;99.90;;;;;;5026672;28;20075;-76
2021/09/29 04:25:40;;;;;;;52.35;26.70;;;9.60;99.90;;;;;;5029327;28;20054;-76
2021/09/29 04:28:07;;;;;;;55.70;28.95;;;9.50;99.90;;;;;;5005142;28;20046;-76
2021/09/29 04:30:34;;;;;;;49.85;28.05;;;9.60;99.90;;;;;;5009437;28;20061;-76
2021/09/29 04:33:02;;;;;;;43.40;25.17;;;9.70;99.90;;;;;;5000158;28;20050;-76
2021/09/29 04:35:29;;;;;;;42.70;23.92;;;9.70;99.90;;;;;;5017372;28;20061;-76
2021/09/29 04:37:56;;;;;;;46.28;24.63;;;9.70;99.90;;;;;;5019557;28;20057;-76
2021/09/29 04:40:22;;;;;;;46.58;24.13;;;9.60;99.90;;;;;;5021722;28;21058;-76
2021/09/29 04:42:49;;;;;;;37.08;22.52;;;9.60;99.90;;;;;;5022719;28;20794;-76
2021/09/29 04:45:16;;;;;;;38.35;21.30;;;9.90;99.90;;;;;;5022118;28;20057;-76
2021/09/29 04:47:43;;;;;;;38.30;20.88;;;9.80;99.90;;;;;;5007242;28;20630;-76
2021/09/29 04:50:10;;;;;;;38.08;21.35;;;9.80;99.90;;;;;;5003780;28;20049;-76
2021/09/29 04:52:36;;;;;;;34.90;20.83;;;9.70;99.90;;;;;;5004367;28;20053;-76
2021/09/29 04:55:04;;;;;;;36.70;20.05;;;9.80;99.90;;;;;;4988022;28;20160;-76
2021/09/29 04:57:32;;;;;;;34.83;21.13;;;9.90;99.90;;;;;;5018598;28;20393;-76
2021/09/29 04:59:59;;;;;;;33.67;18.92;;;9.90;99.90;;;;;;5015125;28;20116;-77
2021/09/29 05:02:28;;;;;;;30.92;18.58;;;9.90;99.90;;;;;;4993023;28;20089;-76
2021/09/29 05:04:55;;;;;;;31.45;18.73;;;9.70;99.90;;;;;;5020733;28;20396;-76
2021/09/29 05:07:22;;;;;;;29.10;20.15;;;9.80;99.90;;;;;;5004511;28;20103;-76
2021/09/29 05:09:50;;;;;;;32.67;18.05;;;9.90;99.90;;;;;;5004877;28;20499;-76
2021/09/29 05:12:28;;;;;;;30.10;17.52;;;9.90;99.90;;;;;;5022290;28;20049;-75
2021/09/29 05:14:55;;;;;;;30.92;17.40;;;9.60;99.90;;;;;;5006219;28;20111;-76
2021/09/29 05:17:23;;;;;;;32.85;18.42;;;9.70;99.90;;;;;;5004699;28;20045;-76
2021/09/29 05:19:50;;;;;;;31.10;16.50;;;9.70;99.90;;;;;;5019738;28;20300;-76
2021/09/29 05:22:17;;;;;;;30.88;17.58;;;9.70;99.90;;;;;;5004058;28;20486;-76
2021/09/29 05:24:44;;;;;;;29.05;15.48;;;9.70;99.90;;;;;;4985375;28;20112;-76
2021/09/29 05:27:11;;;;;;;31.25;16.17;;;9.70;99.90;;;;;;5010205;28;20047;-76
2021/09/29 05:29:41;;;;;;;31.83;17.20;;;9.70;99.90;;;;;;5010001;28;20057;-76
2021/09/29 05:32:08;;;;;;;25.38;15.40;;;9.80;99.90;;;;;;5014550;28;20053;-76
2021/09/29 05:34:35;;;;;;;20.88;14.70;;;9.70;99.90;;;;;;5015173;28;20052;-76
2021/09/29 05:37:02;;;;;;;27.95;15.98;;;9.70;99.90;;;;;;5019284;28;20557;-76
2021/09/29 05:39:29;;;;;;;20.95;15.23;;;9.60;99.90;;;;;;5022804;28;20511;-76
2021/09/29 05:41:56;;;;;;;19.48;12.88;;;9.70;99.90;;;;;;5014867;28;20293;-76
2021/09/29 05:44:23;;;;;;;21.20;13.60;;;9.70;99.90;;;;;;5002616;28;20062;-75
2021/09/29 05:46:49;;;;;;;24.38;13.35;;;9.60;99.90;;;;;;5013341;28;20100;-75
2021/09/29 05:49:16;;;;;;;21.83;14.80;;;9.60;99.90;;;;;;5026098;28;20147;-75
2021/09/29 05:51:45;;;;;;;23.98;13.63;;;9.60;99.90;;;;;;5009325;28;20045;-75
2021/09/29 05:54:12;;;;;;;23.85;14.20;;;9.70;99.90;;;;;;5027244;28;20060;-76
2021/09/29 05:56:39;;;;;;;28.75;14.55;;;9.90;99.90;;;;;;5027422;28;20526;-76
2021/09/29 05:59:05;;;;;;;21.42;13.88;;;9.90;99.90;;;;;;4996860;28;20104;-73
2021/09/29 06:01:32;;;;;;;20.10;13.57;;;9.90;99.90;;;;;;5015655;28;20076;-76
2021/09/29 06:03:59;;;;;;;27.85;15.52;;;9.80;99.90;;;;;;5019481;28;20061;-76
2021/09/29 06:06:26;;;;;;;25.58;14.82;;;10.00;99.90;;;;;;4990064;28;20443;-76
2021/09/29 06:08:53;;;;;;;24.98;13.98;;;10.10;99.90;;;;;;5006112;28;20108;-76
2021/09/29 06:11:20;;;;;;;21.42;13.38;;;10.10;99.90;;;;;;5004629;28;20508;-76
2021/09/29 06:13:47;;;;;;;18.48;13.93;;;10.10;99.90;;;;;;5006851;28;20172;-76
2021/09/29 06:16:14;;;;;;;19.88;11.88;;;10.30;99.90;;;;;;5025143;28;20060;-76
2021/09/29 06:18:41;;;;;;;22.27;12.23;;;10.20;99.90;;;;;;5026053;28;20084;-76
2021/09/29 06:21:08;;;;;;;17.55;11.10;;;10.20;99.90;;;;;;5024562;28;20482;-76
2021/09/29 06:23:35;;;;;;;19.83;12.45;;;10.20;99.90;;;;;;5026895;28;20062;-76
2021/09/29 06:26:04;;;;;;;19.60;10.70;;;10.30;99.90;;;;;;5021366;28;20091;-76
2021/09/29 06:28:34;;;;;;;19.02;11.00;;;10.30;99.90;;;;;;5023756;28;20072;-76
2021/09/29 06:31:01;;;;;;;16.70;11.10;;;10.40;99.90;;;;;;5021471;28;20049;-76
2021/09/29 06:33:28;;;;;;;21.90;12.77;;;10.40;99.90;;;;;;5013724;28;20049;-76
2021/09/29 06:35:55;;;;;;;19.73;11.40;;;10.40;99.90;;;;;;5022818;28;20053;-76
2021/09/29 06:38:21;;;;;;;17.52;10.55;;;10.40;99.90;;;;;;5010544;28;20064;-75
2021/09/29 06:40:50;;;;;;;14.13;10.88;;;10.50;99.90;;;;;;5023898;23;20312;31
2021/09/29 06:43:18;;;;;;;16.05;10.90;;;10.50;99.90;;;;;;4945777;28;20515;-66
2021/09/29 06:45:45;;;;;;;17.77;10.20;;;10.50;99.90;;;;;;4965866;28;20054;-66
2021/09/29 06:48:13;;;;;;;18.60;10.85;;;10.50;99.90;;;;;;4929049;28;20051;-66
2021/09/29 06:50:39;;;;;;;16.45;10.05;;;10.60;99.90;;;;;;4938622;28;20055;-67
2021/09/29 06:53:16;;;;;;;14.20;9.32;;;10.70;99.90;;;;;;4932900;28;20058;-66
2021/09/29 06:55:43;;;;;;;12.93;8.80;;;10.70;99.90;;;;;;4964079;28;20611;-67
2021/09/29 06:58:10;;;;;;;14.80;9.50;;;10.80;99.90;;;;;;4963613;28;20050;-66
2021/09/29 07:00:37;;;;;;;14.60;8.85;;;10.90;99.90;;;;;;4963402;28;20050;-66
2021/09/29 07:03:04;;;;;;;11.98;8.73;;;11.00;99.90;;;;;;4942712;28;20450;-66
2021/09/29 07:05:32;;;;;;;14.20;8.15;;;11.00;99.90;;;;;;4943358;28;20058;-65
2021/09/29 07:08:00;;;;;;;17.35;9.73;;;11.20;99.90;;;;;;4945692;28;20043;-67
2021/09/29 07:10:29;;;;;;;13.45;8.32;;;11.30;99.90;;;;;;4962522;28;20090;-66
2021/09/29 07:12:57;;;;;;;13.93;9.40;;;11.40;99.90;;;;;;4944714;28;20306;-66
2021/09/29 07:15:25;;;;;;;13.10;8.80;;;11.40;99.90;;;;;;4961725;28;20054;-67
2021/09/29 07:17:57;;;;;;;13.32;8.45;;;11.40;99.90;;;;;;4959270;28;20063;-65
2021/09/29 07:20:26;;;;;;;15.35;7.95;;;11.40;99.90;;;;;;4961253;28;20247;-67
2021/09/29 07:22:53;;;;;;;12.65;8.25;;;11.40;99.90;;;;;;4935210;29;20055;-67
2021/09/29 07:25:20;;;;;;;13.65;7.93;;;11.50;99.90;;;;;;4926559;29;20063;-67
2021/09/29 07:27:47;;;;;;;15.77;8.82;;;11.50;99.90;;;;;;4925347;29;20656;-66
2021/09/29 07:30:14;;;;;;;13.23;8.30;;;11.50;99.90;;;;;;4952873;28;20328;-67
2021/09/29 07:32:45;;;;;;;14.23;8.38;;;11.50;99.90;;;;;;4941811;28;20047;-68
2021/09/29 07:35:13;;;;;;;13.80;7.85;;;11.60;99.90;;;;;;4946945;28;20065;-66
2021/09/29 07:37:40;;;;;;;12.48;8.40;;;11.70;99.90;;;;;;4944081;28;20055;-67
2021/09/29 07:40:08;;;;;;;19.17;8.57;;;11.70;99.90;;;;;;4961322;28;20055;-67
2021/09/29 07:42:36;;;;;;;16.95;9.35;;;11.70;99.90;;;;;;4945449;28;20051;-66
2021/09/29 07:45:05;;;;;;;17.10;9.32;;;11.70;99.90;;;;;;4960278;28;20412;-66
2021/09/29 07:47:33;;;;;;;10.80;8.30;;;11.80;99.90;;;;;;4946548;28;20210;-68
2021/09/29 07:50:01;;;;;;;14.65;8.70;;;11.80;99.90;;;;;;4942807;29;20059;-66
2021/09/29 07:52:27;;;;;;;14.95;7.82;;;11.90;99.90;;;;;;4960489;28;20093;-68
2021/09/29 07:54:54;;;;;;;19.02;8.60;;;12.10;99.90;;;;;;4944072;28;20507;-67
2021/09/29 07:57:41;;;;;;;15.93;7.47;;;12.40;99.90;;;;;;4946066;28;20550;-67
2021/09/29 08:00:09;;;;;;;12.30;7.57;;;12.80;99.90;;;;;;4942120;28;20057;-67
2021/09/29 08:02:41;;;;;;;10.95;7.28;;;12.90;99.90;;;;;;4962357;28;20066;-66
2021/09/29 08:05:09;;;;;;;12.68;8.75;;;13.30;99.90;;;;;;4955179;28;20057;-67
2021/09/29 08:07:38;;;;;;;13.23;7.70;;;13.50;99.90;;;;;;4941697;28;20074;-68
2021/09/29 08:10:06;;;;;;;8.88;7.43;;;13.40;99.90;;;;;;4905252;29;20054;-66
2021/09/29 08:12:33;;;;;;;11.02;8.57;;;13.30;99.90;;;;;;4955651;28;20061;-67
2021/09/29 08:15:00;;;;;;;10.85;8.70;;;13.20;99.90;;;;;;4943903;28;20047;-68
2021/09/29 08:17:27;;;;;;;14.68;9.10;;;13.20;99.90;;;;;;4939039;28;20519;-67
2021/09/29 08:19:55;;;;;;;15.20;8.77;;;13.40;99.90;;;;;;4942589;28;20241;-67
2021/09/29 08:22:21;;;;;;;12.32;9.35;;;13.70;99.90;;;;;;4941473;28;20254;-68
2021/09/29 08:25:11;;;;;;;11.60;8.52;;;13.80;99.90;;;;;;4960311;28;20708;-67
2021/09/29 08:33:31;;;;;;;10.40;9.43;;;14.80;99.90;;;;;;4961894;28;20009;-70
2021/09/29 08:36:03;;;;;;;9.85;8.95;;;15.10;99.90;;;;;;4953543;28;20043;-67
2021/09/29 08:38:41;;;;;;;11.13;9.30;;;15.30;99.90;;;;;;4942747;28;20047;-67
2021/09/29 08:49:29;;;;;;;10.23;9.60;;;15.90;99.90;;;;;;4960284;28;20050;-68
2021/09/29 08:52:13;;;;;;;11.95;10.82;;;16.20;99.90;;;;;;4926346;28;20677;-67
2021/09/29 09:16:31;;;;;;;12.60;11.50;;;16.90;99.90;;;;;;4956905;28;20431;-66
2021/09/29 09:19:09;;;;;;;13.40;12.40;;;17.10;99.90;;;;;;4943004;28;20042;-67
2021/09/29 09:22:00;;;;;;;11.77;10.90;;;16.80;99.90;;;;;;4963320;28;20426;-69
2021/09/29 09:24:30;;;;;;;13.27;12.27;;;17.10;99.90;;;;;;4950689;28;20062;-70
2021/09/29 09:27:05;;;;;;;11.10;10.20;;;17.10;99.90;;;;;;4941897;28;20057;-69
2021/09/29 09:29:51;;;;;;;12.02;10.88;;;17.20;99.90;;;;;;4940515;28;20221;-68
2021/09/29 09:32:22;;;;;;;13.48;10.70;;;17.00;99.90;;;;;;4975729;28;20522;-68
2021/09/29 09:35:08;;;;;;;12.88;11.60;;;16.80;99.90;;;;;;4944677;28;20043;-67
2021/09/29 09:37:38;;;;;;;9.75;8.85;;;16.40;99.90;;;;;;4921204;29;20055;-67
2021/09/29 09:40:16;;;;;;;11.77;7.82;;;16.10;99.90;;;;;;4925198;28;20466;-68
2021/09/29 09:42:46;;;;;;;13.25;8.13;;;15.80;99.90;;;;;;4957720;28;20098;-67
2021/09/29 09:45:14;;;;;;;10.50;7.78;;;15.60;99.90;;;;;;4941873;28;20672;-68
2021/09/29 09:47:46;;;;;;;10.02;7.13;;;15.40;99.90;;;;;;4934607;28;20327;-67
2021/09/29 09:50:26;;;;;;;10.85;6.53;;;15.30;99.90;;;;;;4959336;28;20544;-67
2021/09/29 09:52:53;;;;;;;10.25;6.97;;;15.00;99.90;;;;;;4960039;28;20057;-72
2021/09/29 09:55:23;;;;;;;7.40;6.07;;;14.90;99.90;;;;;;4941730;28;20054;-67
2021/09/29 09:57:57;;;;;;;9.45;5.70;;;14.80;99.90;;;;;;4942752;28;20718;-68
2021/09/29 10:00:28;;;;;;;6.97;4.93;;;14.80;99.90;;;;;;4932328;28;20062;-69
2021/09/29 10:02:55;;;;;;;10.00;5.60;;;14.80;99.90;;;;;;4938041;28;20741;-68
2021/09/29 10:05:27;;;;;;;8.88;5.15;;;14.80;99.90;;;;;;4932331;28;20423;-69
2021/09/29 10:07:55;;;;;;;7.07;5.00;;;14.70;99.90;;;;;;4944127;28;20451;-69
2021/09/29 10:13:14;;;;;;;10.70;6.60;;;14.70;99.90;;;;;;4938436;28;20055;-68
2021/09/29 10:27:14;;;;;;;8.57;5.03;;;14.70;99.90;;;;;;4957839;28;20043;-69
2021/09/29 10:29:50;;;;;;;8.88;5.32;;;14.70;99.90;;;;;;4943789;28;20435;-70
2021/09/29 10:32:36;;;;;;;6.40;5.20;;;14.70;99.90;;;;;;4934586;28;20495;-71
2021/09/29 10:43:47;;;;;;;8.20;5.88;;;14.90;99.90;;;;;;4964245;28;20059;-71
2021/09/29 10:49:28;;;;;;;7.50;6.20;;;14.90;99.90;;;;;;4963215;28;20063;-70
2021/09/29 11:30:51;;;;;;;5.20;4.45;;;14.70;99.90;;;;;;4962609;28;20050;-70
2021/09/29 11:33:37;;;;;;;8.10;5.07;;;14.80;99.90;;;;;;4957974;28;20568;-71
2021/09/29 11:36:22;;;;;;;7.30;6.03;;;15.00;99.90;;;;;;4910708;28;20371;-71
2021/09/29 11:50:01;;;;;;;5.30;4.85;;;15.30;99.90;;;;;;4957598;28;20504;-70
2021/09/29 12:14:54;;;;;;;4.70;4.40;;;14.90;99.90;;;;;;4910461;29;20069;-69
2021/09/29 12:17:31;;;;;;;5.60;5.40;;;15.00;99.90;;;;;;4909430;28;20045;-68
2021/09/29 12:20:18;;;;;;;5.18;4.95;;;14.90;99.90;;;;;;4944076;28;20098;-70
2021/09/29 12:22:52;;;;;;;5.22;4.95;;;14.90;99.90;;;;;;4943793;28;20089;-70
2021/09/29 12:25:30;;;;;;;5.40;5.10;;;14.80;99.90;;;;;;4961730;28;20047;-69
2021/09/29 12:28:19;;;;;;;5.13;4.93;;;14.70;99.90;;;;;;4960933;28;20822;-70
2021/09/29 12:33:56;;;;;;;4.25;4.10;;;14.50;99.90;;;;;;4939304;28;20055;-69
2021/09/29 12:36:32;;;;;;;4.70;4.50;;;14.40;99.90;;;;;;4924889;28;20122;-69
2021/09/29 12:39:00;;;;;;;;;;;14.30;99.90;;;;;;4959161;28;20062;-68
2021/09/29 12:41:29;;;;;;;2.42;2.28;;;13.70;99.90;;;;;;4937638;23;19922;-69
2021/09/29 12:44:16;;;;;;;2.25;1.70;;;12.80;99.90;;;;;;4976198;28;20096;-68
2021/09/29 12:46:49;;;;;;;1.48;1.38;;;12.10;99.90;;;;;;5010753;28;20077;-71
2021/09/29 12:49:21;;;;;;;3.78;1.50;;;11.70;99.90;;;;;;4972994;28;20066;-70
2021/09/29 12:51:59;;;;;;;2.75;1.58;;;11.50;99.90;;;;;;4974048;28;20061;-69
2021/09/29 12:54:26;;;;;;;6.95;2.47;;;11.40;99.90;;;;;;4985307;28;20069;-69
2021/09/29 12:56:53;;;;;;;4.40;1.80;;;11.20;99.90;;;;;;4980597;28;20042;-75
2021/09/29 12:59:20;;;;;;;4.47;2.40;;;11.00;99.90;;;;;;4962686;28;20045;-75
2021/09/29 13:01:47;;;;;;;5.43;2.30;;;10.90;99.90;;;;;;4985995;28;20056;-76
2021/09/29 13:04:14;;;;;;;2.58;1.73;;;10.90;99.90;;;;;;4981704;28;20038;-74
2021/09/29 13:06:42;;;;;;;7.10;4.15;;;10.80;99.90;;;;;;4962799;28;20205;-73
2021/09/29 13:09:10;;;;;;;5.97;4.45;;;10.80;99.90;;;;;;4949699;28;20592;-74
2021/09/29 13:11:37;;;;;;;9.93;8.45;;;10.80;99.90;;;;;;4997907;28;20100;-78
2021/09/29 13:14:05;;;;;;;6.03;4.28;;;10.90;99.90;;;;;;5000369;28;20046;-78
2021/09/29 13:16:32;;;;;;;8.60;5.13;;;10.80;99.90;;;;;;4967704;28;20046;-74
2021/09/29 13:19:09;;;;;;;10.27;4.03;;;10.90;99.90;;;;;;4970434;28;20141;-75
2021/09/29 13:21:58;;;;;;;7.72;4.75;;;10.90;99.90;;;;;;4982160;28;20061;-76
2021/09/29 13:24:51;;;;;;;6.20;4.15;;;11.00;99.90;;;;;;4968124;28;20116;-75
2021/09/29 13:38:30;;;;;;;4.15;2.22;;;11.40;99.90;;;;;;4963192;28;20370;-74
2021/09/29 13:40:57;;;;;;;5.10;3.28;;;11.50;99.90;;;;;;4950881;28;20054;-76
2021/09/29 13:43:25;;;;;;;8.25;4.15;;;11.50;99.90;;;;;;4982037;28;20061;-80
2021/09/29 13:45:53;;;;;;;7.18;3.88;;;11.50;99.90;;;;;;4998832;28;20050;-76
2021/09/29 13:48:20;;;;;;;5.57;3.10;;;11.50;99.90;;;;;;4963496;28;20057;-75
2021/09/29 13:50:47;;;;;;;6.97;3.42;;;11.50;99.90;;;;;;4977398;28;20045;-75
2021/09/29 13:53:14;;;;;;;5.57;3.63;;;11.60;99.90;;;;;;4980067;28;20247;-77
2021/09/29 13:55:44;;;;;;;10.25;5.30;;;11.70;99.90;;;;;;4983888;28;20379;-75
2021/09/29 13:58:23;;;;;;;5.38;3.10;;;11.70;99.90;;;;;;4960248;28;20074;-73
2021/09/29 14:01:11;;;;;;;6.05;3.30;;;11.80;99.90;;;;;;4957634;28;20054;-78
2021/09/29 14:15:28;;;;;;;3.75;2.45;;;11.20;99.90;;;;;;4998332;28;20058;-75
2021/09/29 14:31:04;;;;;;;5.07;3.17;;;10.70;99.90;;;;;;4990114;28;20433;-74
2021/09/29 14:33:38;;;;;;;4.85;2.50;;;10.70;99.90;;;;;;4976836;28;20042;-73
2021/09/29 14:36:05;;;;;;;2.95;2.13;;;10.90;99.90;;;;;;4986471;28;20092;-75
2021/09/29 14:38:32;;;;;;;7.50;2.70;;;10.80;99.90;;;;;;5007563;28;20038;-74
2021/09/29 14:41:01;;;;;;;2.60;2.35;;;10.70;99.90;;;;;;4998176;28;20490;-75
2021/09/29 14:43:28;;;;;;;3.03;2.60;;;10.60;99.90;;;;;;4994718;28;20117;-75
2021/09/29 14:45:55;;;;;;;4.53;2.45;;;10.60;99.90;;;;;;4998838;28;20054;-74
2021/09/29 14:48:21;;;;;;;3.45;2.60;;;10.50;99.90;;;;;;4947101;28;20503;-74
2021/09/29 14:50:50;;;;;;;3.92;2.97;;;10.50;99.90;;;;;;4978537;28;20047;-73
2021/09/29 14:53:17;;;;;;;4.97;4.32;;;10.50;99.90;;;;;;4953238;28;20056;-74
2021/09/29 14:55:44;;;;;;;6.32;4.95;;;10.50;99.90;;;;;;4968620;28;20056;-74
2021/09/29 14:58:11;;;;;;;7.65;4.10;;;10.60;99.90;;;;;;4998519;28;20046;-73
2021/09/29 15:00:38;;;;;;;6.57;4.38;;;10.60;99.90;;;;;;4996560;28;20123;-73
2021/09/29 15:03:08;;;;;;;7.22;4.10;;;10.50;99.90;;;;;;4977757;28;20054;-73
2021/09/29 15:05:35;;;;;;;6.97;4.28;;;10.50;99.90;;;;;;4985413;28;20057;-74
2021/09/29 15:08:02;;;;;;;6.90;6.18;;;10.50;99.90;;;;;;4999229;28;20443;-75
2021/09/29 15:10:29;;;;;;;3.25;2.85;;;10.40;99.90;;;;;;4999252;28;20427;-74
2021/09/29 15:13:01;;;;;;;5.97;3.15;;;10.00;99.90;;;;;;4999865;28;20050;-77
2021/09/29 15:15:32;;;;;;;4.72;2.95;;;9.70;99.90;;;;;;4996612;28;20052;-73
2021/09/29 15:18:07;;;;;;;7.82;4.63;;;9.60;99.90;;;;;;4982661;28;20508;-72
2021/09/29 15:48:00;;;;;;;3.67;2.20;;;9.90;99.90;;;;;;4999719;28;20834;-74
2021/09/29 15:50:44;;;;;;;4.20;2.17;;;9.80;99.90;;;;;;4994959;28;20042;-75
2021/09/29 15:56:01;;;;;;;3.50;2.83;;;9.60;99.90;;;;;;4999459;28;20545;-75
2021/09/29 16:04:16;;;;;;;4.28;3.45;;;9.60;99.90;;;;;;4979635;28;20092;-75
2021/09/29 16:11:46;;;;;;;4.05;2.70;;;9.60;99.90;;;;;;4998427;28;20046;-74
2021/09/29 16:14:30;;;;;;;6.65;3.38;;;9.50;99.90;;;;;;4982715;28;20414;-74
2021/09/29 16:22:37;;;;;;;6.40;3.40;;;9.30;99.90;;;;;;4977594;28;20518;-73
2021/09/29 16:30:24;;;;;;;4.40;2.88;;;9.30;99.90;;;;;;4995961;28;20125;-73
2021/09/29 16:33:09;;;;;;;3.20;2.55;;;9.30;99.90;;;;;;4995735;28;20076;-75
2021/09/29 16:35:58;;;;;;;3.53;2.53;;;9.30;99.90;;;;;;4987121;28;20049;-74
2021/09/29 16:38:24;;;;;;;3.78;2.90;;;9.30;99.90;;;;;;4983139;28;20046;-73
2021/09/29 16:40:51;;;;;;;3.88;2.83;;;9.20;99.90;;;;;;4999218;28;20478;-74